createdAt,value
2023-02-25T00:01:35.572Z,3.67
2023-02-25T00:04:10.460Z,4.17
2023-02-25T00:06:46.763Z,4.00
2023-02-25T00:09:22.044Z,4.10
2023-02-25T00:11:57.039Z,4.27
2023-02-25T00:14:31.884Z,4.37
2023-02-25T00:17:06.843Z,3.67
2023-02-25T00:19:41.748Z,4.63
2023-02-25T00:22:17.042Z,4.50
2023-02-25T00:24:55.970Z,4.30
2023-02-25T00:27:30.845Z,3.93
2023-02-25T00:30:06.459Z,4.23
2023-02-25T00:32:41.558Z,4.47
2023-02-25T00:35:16.780Z,3.93
2023-02-25T00:37:54.322Z,3.57
2023-02-25T00:40:29.219Z,3.37
2023-02-25T00:43:04.405Z,3.77
2023-02-25T00:45:42.828Z,3.43
2023-02-25T00:48:17.713Z,2.60
2023-02-25T00:50:52.781Z,3.30
2023-02-25T00:53:28.659Z,3.83
2023-02-25T00:56:06.572Z,3.00
2023-02-25T00:58:43.879Z,3.37
2023-02-25T01:01:29.747Z,3.47
2023-02-25T01:04:05.586Z,3.20
2023-02-25T01:06:40.596Z,2.73
2023-02-25T01:09:18.348Z,3.47
2023-02-25T01:11:53.365Z,3.20
2023-02-25T01:14:29.038Z,3.50
2023-02-25T01:17:04.828Z,3.63
2023-02-25T01:19:39.736Z,3.60
2023-02-25T01:22:14.697Z,2.63
2023-02-25T01:24:49.601Z,1.90
2023-02-25T01:27:24.499Z,2.30
2023-02-25T01:29:59.472Z,2.40
2023-02-25T01:32:37.259Z,2.70
2023-02-25T01:35:12.363Z,2.37
2023-02-25T01:37:49.769Z,2.57
2023-02-25T01:40:24.677Z,2.53
2023-02-25T01:42:59.612Z,2.43
2023-02-25T01:45:43.222Z,2.43
2023-02-25T01:48:21.323Z,2.37
2023-02-25T01:51:02.978Z,2.47
2023-02-25T01:53:44.398Z,2.57
2023-02-25T01:56:23.494Z,2.27
2023-02-25T01:59:00.957Z,2.07
2023-02-25T02:01:39.923Z,2.40
2023-02-25T02:04:16.521Z,2.23
2023-02-25T02:06:52.509Z,2.17
2023-02-25T02:09:29.379Z,1.70
2023-02-25T02:12:06.973Z,1.97
2023-02-25T02:14:42.786Z,2.07
2023-02-25T02:17:39.168Z,1.60
2023-02-25T02:20:26.644Z,2.07
2023-02-25T02:23:16.489Z,1.60
2023-02-25T02:26:27.933Z,1.90
2023-02-25T02:29:45.283Z,1.80
2023-02-25T02:33:12.688Z,1.90
2023-02-25T02:36:09.493Z,1.97
2023-02-25T02:39:04.759Z,1.77
2023-02-25T02:41:59.680Z,1.90
2023-02-25T02:45:12.621Z,2.00
2023-02-25T02:47:56.704Z,1.63
2023-02-25T02:50:48.146Z,1.80
2023-02-25T02:53:37.076Z,1.90
2023-02-25T02:56:16.568Z,3.70
2023-02-25T02:59:34.829Z,1.80
2023-02-25T03:02:30.162Z,1.70
2023-02-25T03:05:11.745Z,1.70
2023-02-25T03:07:56.328Z,1.70
2023-02-25T03:10:32.641Z,1.90
2023-02-25T03:13:07.926Z,2.27
2023-02-25T03:15:43.903Z,2.03
2023-02-25T03:18:40.622Z,1.90
2023-02-25T03:21:21.266Z,1.90
2023-02-25T03:23:56.955Z,2.30
2023-02-25T03:26:33.448Z,1.97
2023-02-25T03:29:21.403Z,2.07
2023-02-25T03:32:10.364Z,1.83
2023-02-25T03:34:49.686Z,1.57
2023-02-25T03:37:30.137Z,1.67
2023-02-25T03:40:11.422Z,1.80
2023-02-25T03:42:57.285Z,1.77
2023-02-25T03:45:36.236Z,2.40
2023-02-25T03:48:14.131Z,1.47
2023-02-25T03:50:54.824Z,1.40
2023-02-25T03:53:32.817Z,1.50
2023-02-25T03:56:17.066Z,1.53
2023-02-25T03:58:52.642Z,1.83
2023-02-25T04:01:30.273Z,1.43
2023-02-25T04:04:05.305Z,1.70
2023-02-25T04:06:40.372Z,1.50
2023-02-25T04:09:15.921Z,1.20
2023-02-25T04:11:50.841Z,1.00
2023-02-25T04:14:25.783Z,1.63
2023-02-25T04:17:00.785Z,1.10
2023-02-25T04:19:35.681Z,1.10
2023-02-25T04:22:10.705Z,1.20
2023-02-25T04:24:45.665Z,1.10
2023-02-25T04:27:20.609Z,1.20
2023-02-25T04:29:55.514Z,0.97
2023-02-25T04:32:30.453Z,0.90
2023-02-25T04:35:11.374Z,1.03
2023-02-25T04:37:46.402Z,1.10
2023-02-25T04:40:23.249Z,1.57
2023-02-25T04:42:58.134Z,1.07
2023-02-25T04:45:33.030Z,1.10
2023-02-25T04:48:08.088Z,1.30
2023-02-25T04:50:42.960Z,1.10
2023-02-25T04:53:17.881Z,0.90
2023-02-25T04:55:53.221Z,1.00
2023-02-25T04:58:28.157Z,1.20
2023-02-25T05:01:06.924Z,1.10
2023-02-25T05:03:42.569Z,1.00
2023-02-25T05:06:17.523Z,0.90
2023-02-25T05:08:52.909Z,0.90
2023-02-25T05:11:29.381Z,0.87
2023-02-25T05:14:04.322Z,0.97
2023-02-25T05:16:39.402Z,0.87
2023-02-25T05:19:24.233Z,1.37
2023-02-25T05:21:59.143Z,0.90
2023-02-25T05:24:34.506Z,0.90
2023-02-25T05:27:09.474Z,1.00
2023-02-25T05:29:44.527Z,1.10
2023-02-25T05:32:19.711Z,0.90
2023-02-25T05:34:54.718Z,0.90
2023-02-25T05:37:32.157Z,0.70
2023-02-25T05:40:09.721Z,0.73
2023-02-25T05:42:45.984Z,0.70
2023-02-25T05:45:20.893Z,0.70
2023-02-25T05:47:55.809Z,0.90
2023-02-25T05:50:31.779Z,0.60
2023-02-25T05:53:08.237Z,0.90
2023-02-25T05:55:44.602Z,0.90
2023-02-25T05:58:19.472Z,0.97
2023-02-25T06:00:54.388Z,1.20
2023-02-25T06:03:29.326Z,1.00
2023-02-25T06:06:05.278Z,0.83
2023-02-25T06:08:44.192Z,0.83
2023-02-25T06:11:28.205Z,0.87
2023-02-25T06:14:03.530Z,0.77
2023-02-25T06:16:40.384Z,0.87
2023-02-25T06:19:15.254Z,0.80
2023-02-25T06:21:50.161Z,0.80
2023-02-25T06:24:25.259Z,0.87
2023-02-25T06:27:00.122Z,0.60
2023-02-25T06:29:34.997Z,0.80
2023-02-25T06:32:11.760Z,0.70
2023-02-25T06:34:46.825Z,0.60
2023-02-25T06:37:21.710Z,0.90
2023-02-25T06:39:56.607Z,0.90
2023-02-25T06:42:32.470Z,0.77
2023-02-25T06:45:08.275Z,0.83
2023-02-25T06:47:43.155Z,0.63
2023-02-25T06:50:18.319Z,0.70
2023-02-25T06:52:53.196Z,0.70
2023-02-25T06:55:28.072Z,0.60
2023-02-25T06:58:02.965Z,0.77
2023-02-25T07:00:37.966Z,0.70
2023-02-25T07:03:14.248Z,0.70
2023-02-25T07:05:49.263Z,0.80
2023-02-25T07:08:24.102Z,0.83
2023-02-25T07:11:14.837Z,0.80
2023-02-25T07:13:50.885Z,0.80
2023-02-25T07:16:26.314Z,0.77
2023-02-25T07:19:02.317Z,0.90
2023-02-25T07:21:38.243Z,0.90
2023-02-25T07:24:13.560Z,0.80
2023-02-25T07:26:48.459Z,0.87
2023-02-25T07:29:23.908Z,0.90
2023-02-25T07:32:00.072Z,0.80
2023-02-25T07:34:37.298Z,0.70
2023-02-25T07:37:12.798Z,0.90
2023-02-25T07:39:47.858Z,0.80
2023-02-25T07:42:22.719Z,0.90
2023-02-25T07:44:58.512Z,1.00
2023-02-25T07:47:34.125Z,0.77
2023-02-25T07:50:12.854Z,0.70
2023-02-25T07:52:48.059Z,0.97
2023-02-25T07:55:22.955Z,1.10
2023-02-25T07:57:58.272Z,1.00
2023-02-25T08:00:33.175Z,0.70
2023-02-25T08:03:08.801Z,0.77
2023-02-25T08:05:43.932Z,0.83
2023-02-25T08:08:18.846Z,0.70
2023-02-25T08:10:53.794Z,1.00
2023-02-25T08:13:28.730Z,0.90
2023-02-25T08:16:10.260Z,0.70
2023-02-25T08:18:47.067Z,0.67
2023-02-25T08:21:23.804Z,0.70
2023-02-25T08:23:59.619Z,0.97
2023-02-25T08:26:35.477Z,0.87
2023-02-25T08:29:10.390Z,0.83
2023-02-25T08:31:46.835Z,1.00
2023-02-25T08:34:21.990Z,0.90
2023-02-25T08:36:56.900Z,0.80
2023-02-25T08:39:34.004Z,0.80
2023-02-25T08:42:11.660Z,0.80
2023-02-25T08:44:46.528Z,1.00
2023-02-25T08:47:21.574Z,0.70
2023-02-25T08:49:56.531Z,1.00
2023-02-25T08:52:34.992Z,0.80
2023-02-25T08:55:14.824Z,0.80
2023-02-25T08:57:49.748Z,0.93
2023-02-25T09:00:25.268Z,0.60
2023-02-25T09:03:00.224Z,0.70
2023-02-25T09:05:35.781Z,0.80
2023-02-25T09:08:10.734Z,0.70
2023-02-25T09:10:50.603Z,0.70
2023-02-25T09:13:26.080Z,0.70
2023-02-25T09:16:02.179Z,1.00
2023-02-25T09:18:37.398Z,0.93
2023-02-25T09:21:13.522Z,0.73
2023-02-25T09:23:51.305Z,0.90
2023-02-25T09:26:26.350Z,0.60
2023-02-25T09:29:03.062Z,0.70
2023-02-25T09:31:39.828Z,0.73
2023-02-25T09:34:15.095Z,0.90
2023-02-25T09:36:49.985Z,0.90
2023-02-25T09:39:24.882Z,0.70
2023-02-25T09:42:09.545Z,0.50
2023-02-25T09:44:55.326Z,0.50
2023-02-25T09:47:59.275Z,0.60
2023-02-25T09:50:41.005Z,0.50
2023-02-25T09:53:40.020Z,0.50
2023-02-25T09:56:18.472Z,0.50
2023-02-25T09:58:59.652Z,0.60
2023-02-25T10:01:46.361Z,0.40
2023-02-25T10:04:31.478Z,0.50
2023-02-25T10:07:20.855Z,0.40
2023-02-25T10:10:22.539Z,0.50
2023-02-25T10:13:19.885Z,0.50
2023-02-25T10:16:27.604Z,0.50
2023-02-25T10:19:26.415Z,0.47
2023-02-25T10:22:34.480Z,0.50
2023-02-25T10:25:22.508Z,0.50
2023-02-25T10:28:04.844Z,0.40
2023-02-25T10:31:16.862Z,0.40
2023-02-25T10:33:54.092Z,0.53
2023-02-25T10:36:39.606Z,0.50
2023-02-25T10:39:14.589Z,0.50
2023-02-25T10:41:50.439Z,0.60
2023-02-25T10:44:25.324Z,0.50
2023-02-25T10:47:05.097Z,0.50
2023-02-25T10:49:39.960Z,0.70
2023-02-25T10:52:18.398Z,0.60
2023-02-25T10:54:54.591Z,0.70
2023-02-25T10:57:42.844Z,0.90
2023-02-25T11:00:34.327Z,1.10
2023-02-25T11:03:23.698Z,0.80
2023-02-25T11:06:26.373Z,0.60
2023-02-25T11:09:06.169Z,1.10
2023-02-25T11:11:57.370Z,0.60
2023-02-25T11:14:35.446Z,0.93
2023-02-25T11:17:12.200Z,1.10
2023-02-25T11:19:53.043Z,0.70
2023-02-25T11:22:43.057Z,0.80
2023-02-25T11:25:35.252Z,0.80
2023-02-25T11:28:43.855Z,0.70
2023-02-25T11:31:23.171Z,0.60
2023-02-25T11:34:01.349Z,0.87
2023-02-25T11:36:38.956Z,0.90
2023-02-25T11:39:25.370Z,0.80
2023-02-25T11:42:24.159Z,1.20
2023-02-25T11:45:04.714Z,1.30
2023-02-25T11:47:39.888Z,1.07
2023-02-25T11:50:37.838Z,0.80
2023-02-25T11:53:44.805Z,2.00
2023-02-25T11:56:34.365Z,0.70
2023-02-25T11:59:54.613Z,1.00
2023-02-25T12:02:42.808Z,1.00
2023-02-25T12:05:58.307Z,0.93
2023-02-25T12:09:01.732Z,0.70
2023-02-25T12:12:02.787Z,1.10
2023-02-25T12:15:00.599Z,0.80
2023-02-25T12:18:22.404Z,0.73
2023-02-25T12:21:24.164Z,0.83
2023-02-25T12:24:08.081Z,1.40
2023-02-25T12:27:01.764Z,0.90
2023-02-25T12:30:14.245Z,1.10
2023-02-25T12:33:13.466Z,0.90
2023-02-25T12:36:39.567Z,1.10
2023-02-25T12:39:55.920Z,1.10
2023-02-25T12:43:25.342Z,0.80
2023-02-25T12:46:16.992Z,1.00
2023-02-25T12:49:27.539Z,0.87
2023-02-25T12:52:11.681Z,1.00
2023-02-25T12:55:07.958Z,1.10
2023-02-25T12:58:11.778Z,1.00
2023-02-25T13:01:34.343Z,1.10
2023-02-25T13:04:33.036Z,1.07
2023-02-25T13:07:37.770Z,1.10
2023-02-25T13:11:03.039Z,1.20
2023-02-25T13:14:04.393Z,0.83
2023-02-25T13:17:16.409Z,1.67
2023-02-25T13:20:33.036Z,1.50
2023-02-25T13:23:50.824Z,0.87
2023-02-25T13:26:54.683Z,1.20
2023-02-25T13:29:52.848Z,1.43
2023-02-25T13:32:44.993Z,1.50
2023-02-25T13:35:38.010Z,0.90
2023-02-25T13:39:01.218Z,1.07
2023-02-25T13:42:06.465Z,0.93
2023-02-25T13:45:19.091Z,0.80
2023-02-25T13:48:36.908Z,0.83
2023-02-25T13:51:30.390Z,0.63
2023-02-25T13:54:39.247Z,0.90
2023-02-25T13:57:35.547Z,0.80
2023-02-25T14:01:07.780Z,0.80
2023-02-25T14:04:22.333Z,0.90
2023-02-25T14:07:33.439Z,1.13
2023-02-25T14:10:44.852Z,1.03
2023-02-25T14:14:07.362Z,0.90
2023-02-25T14:17:19.244Z,1.00
2023-02-25T14:20:34.039Z,1.10
2023-02-25T14:23:36.532Z,1.43
2023-02-25T14:26:49.768Z,1.10
2023-02-25T14:29:53.724Z,1.20
2023-02-25T14:33:04.884Z,0.80
2023-02-25T14:36:23.167Z,0.80
2023-02-25T14:39:40.137Z,0.87
2023-02-25T14:42:40.406Z,1.00
2023-02-25T14:45:22.982Z,1.03
2023-02-25T14:48:12.543Z,0.80
2023-02-25T14:51:08.155Z,0.80
2023-02-25T14:54:20.540Z,1.00
2023-02-25T14:57:23.100Z,1.27
2023-02-25T15:00:09.993Z,1.20
2023-02-25T15:03:18.389Z,0.90
2023-02-25T15:06:19.492Z,0.80
2023-02-25T15:09:55.866Z,1.37
2023-02-25T15:12:43.427Z,0.80
2023-02-25T15:15:30.850Z,0.80
2023-02-25T15:18:20.647Z,0.70
2023-02-25T15:20:56.324Z,0.87
2023-02-25T15:23:50.449Z,1.07
2023-02-25T15:26:43.624Z,0.80
2023-02-25T15:29:33.894Z,0.90
2023-02-25T15:32:22.457Z,0.90
2023-02-25T15:35:07.826Z,0.90
2023-02-25T15:38:07.112Z,1.27
2023-02-25T15:40:51.465Z,1.10
2023-02-25T15:43:45.126Z,1.03
2023-02-25T15:46:23.371Z,1.00
2023-02-25T15:49:46.121Z,1.10
2023-02-25T15:52:51.660Z,1.10
2023-02-25T15:55:44.114Z,1.20
2023-02-25T15:58:53.509Z,1.40
2023-02-25T16:01:40.243Z,1.60
2023-02-25T16:04:46.690Z,1.40
2023-02-25T16:07:30.989Z,1.40
2023-02-25T16:10:38.877Z,1.60
2023-02-25T16:13:27.884Z,1.60
2023-02-25T16:16:04.258Z,1.20
2023-02-25T16:18:47.565Z,1.10
2023-02-25T16:21:28.773Z,1.33
2023-02-25T16:24:10.113Z,1.37
2023-02-25T16:27:00.730Z,1.40
2023-02-25T16:30:09.660Z,1.50
2023-02-25T16:33:11.868Z,1.50
2023-02-25T16:36:38.986Z,1.27
2023-02-25T16:39:23.951Z,1.50
2023-02-25T16:42:12.055Z,1.40
2023-02-25T16:45:01.135Z,1.77
2023-02-25T16:47:39.157Z,1.30
2023-02-25T16:50:16.058Z,1.40
2023-02-25T16:52:53.095Z,1.40
2023-02-25T16:55:36.437Z,2.00
2023-02-25T16:58:14.318Z,2.33
2023-02-25T17:01:03.941Z,1.60
2023-02-25T17:03:46.563Z,1.50
2023-02-25T17:06:21.591Z,2.00
2023-02-25T17:08:56.679Z,3.00
2023-02-25T17:11:31.740Z,2.30
2023-02-25T17:14:07.764Z,2.13
2023-02-25T17:16:47.842Z,1.73
2023-02-25T17:19:24.687Z,2.23
2023-02-25T17:22:00.114Z,1.40
2023-02-25T17:24:35.121Z,2.60
2023-02-25T17:27:12.768Z,2.10
2023-02-25T17:29:48.435Z,1.50
2023-02-25T17:32:27.749Z,1.30
2023-02-25T17:35:06.113Z,1.23
2023-02-25T17:37:41.311Z,1.70
2023-02-25T17:40:18.589Z,1.20
2023-02-25T17:43:18.586Z,1.33
2023-02-25T17:46:01.108Z,2.20
2023-02-25T17:48:43.297Z,1.90
2023-02-25T17:51:19.133Z,2.00
2023-02-25T17:54:03.355Z,1.90
2023-02-25T17:56:38.363Z,2.40
2023-02-25T17:59:13.171Z,2.37
2023-02-25T18:01:55.979Z,1.50
2023-02-25T18:04:36.729Z,1.50
2023-02-25T18:07:32.664Z,1.17
2023-02-25T18:10:33.353Z,1.27
2023-02-25T18:13:21.148Z,1.10
2023-02-25T18:16:38.478Z,1.57
2023-02-25T18:19:37.296Z,1.40
2023-02-25T18:22:33.890Z,3.10
2023-02-25T18:25:30.452Z,3.00
2023-02-25T18:28:12.698Z,2.60
2023-02-25T18:30:49.690Z,3.10
2023-02-25T18:33:24.668Z,2.70
2023-02-25T18:35:59.891Z,3.80
2023-02-25T18:38:37.616Z,2.50
2023-02-25T18:41:12.523Z,2.77
2023-02-25T18:43:47.514Z,3.03
2023-02-25T18:46:22.615Z,3.00
2023-02-25T18:48:58.239Z,2.30
2023-02-25T18:51:34.247Z,3.53
2023-02-25T18:54:16.098Z,3.07
2023-02-25T18:56:51.141Z,2.43
2023-02-25T18:59:26.086Z,2.20
2023-02-25T19:02:00.989Z,1.80
2023-02-25T19:04:35.874Z,2.10
2023-02-25T19:07:11.717Z,2.43
2023-02-25T19:09:46.620Z,2.43
2023-02-25T19:12:23.540Z,3.00
2023-02-25T19:15:05.133Z,2.63
2023-02-25T19:17:41.151Z,4.10
2023-02-25T19:20:18.658Z,5.73
2023-02-25T19:22:54.056Z,5.10
2023-02-25T19:25:34.916Z,5.03
2023-02-25T19:28:11.216Z,3.40
2023-02-25T19:30:46.188Z,3.60
2023-02-25T19:33:21.123Z,2.87
2023-02-25T19:35:56.084Z,3.40
2023-02-25T19:38:32.772Z,3.63
2023-02-25T19:41:07.705Z,3.47
2023-02-25T19:43:42.648Z,3.10
2023-02-25T19:46:17.889Z,3.07
2023-02-25T19:48:52.826Z,3.13
2023-02-25T19:51:27.763Z,3.57
2023-02-25T19:54:03.851Z,3.70
2023-02-25T19:56:40.003Z,3.43
2023-02-25T19:59:15.339Z,4.60
2023-02-25T20:01:50.267Z,4.33
2023-02-25T20:04:25.541Z,3.50
2023-02-25T20:07:00.441Z,3.30
2023-02-25T20:09:35.534Z,3.00
2023-02-25T20:12:10.521Z,3.40
2023-02-25T20:14:45.453Z,2.80
2023-02-25T20:17:20.665Z,2.50
2023-02-25T20:19:55.504Z,2.20
2023-02-25T20:22:30.415Z,2.33
2023-02-25T20:25:08.009Z,2.30
2023-02-25T20:27:43.378Z,2.23
2023-02-25T20:30:18.729Z,2.63
2023-02-25T20:32:53.912Z,2.37
2023-02-25T20:35:29.390Z,1.97
2023-02-25T20:38:28.160Z,2.10
2023-02-25T20:41:03.366Z,2.10
2023-02-25T20:43:38.577Z,1.80
2023-02-25T20:46:27.576Z,2.20
2023-02-25T20:49:04.018Z,2.37
2023-02-25T20:51:39.275Z,1.70
2023-02-25T20:54:17.574Z,2.00
2023-02-25T20:56:52.444Z,1.50
2023-02-25T20:59:27.376Z,1.53
2023-02-25T21:02:02.257Z,1.63
2023-02-25T21:04:38.129Z,1.63
2023-02-25T21:07:14.558Z,1.40
2023-02-25T21:09:49.955Z,1.60
2023-02-25T21:12:24.813Z,1.30
2023-02-25T21:14:59.707Z,1.30
2023-02-25T21:17:34.606Z,1.00
2023-02-25T21:20:11.046Z,1.40
2023-02-25T21:22:48.047Z,1.20
2023-02-25T21:25:22.956Z,1.03
2023-02-25T21:27:58.760Z,1.20
2023-02-25T21:30:33.768Z,1.10
2023-02-25T21:33:09.713Z,1.00
2023-02-25T21:35:51.418Z,1.17
2023-02-25T21:38:28.077Z,1.60
2023-02-25T21:41:12.871Z,1.30
2023-02-25T21:43:48.335Z,1.47
2023-02-25T21:46:24.574Z,1.00
2023-02-25T21:49:00.837Z,0.90
2023-02-25T21:51:35.973Z,0.90
2023-02-25T21:54:10.889Z,1.00
2023-02-25T21:56:45.831Z,1.00
2023-02-25T21:59:20.831Z,1.00
2023-02-25T22:01:55.887Z,1.00
2023-02-25T22:04:30.855Z,1.10
2023-02-25T22:07:05.757Z,1.00
2023-02-25T22:09:40.613Z,1.20
2023-02-25T22:12:15.738Z,1.10
2023-02-25T22:14:50.863Z,1.10
2023-02-25T22:17:25.728Z,1.17
2023-02-25T22:20:00.611Z,1.00
2023-02-25T22:22:38.006Z,1.13
2023-02-25T22:25:12.988Z,1.17
2023-02-25T22:27:47.873Z,1.10
2023-02-25T22:30:22.734Z,1.00
2023-02-25T22:32:57.700Z,1.00
2023-02-25T22:35:32.774Z,1.10
2023-02-25T22:38:07.707Z,1.40
2023-02-25T22:40:42.555Z,1.00
2023-02-25T22:43:17.401Z,1.20
2023-02-25T22:45:52.309Z,1.20
2023-02-25T22:48:27.150Z,1.20
2023-02-25T22:51:02.767Z,1.20
2023-02-25T22:53:39.804Z,0.90
2023-02-25T22:56:15.116Z,1.00
2023-02-25T22:58:50.171Z,1.37
2023-02-25T23:01:26.287Z,1.30
2023-02-25T23:04:01.886Z,1.20
2023-02-25T23:06:43.981Z,1.50
2023-02-25T23:09:19.755Z,1.50
2023-02-25T23:11:55.204Z,1.93
2023-02-25T23:14:30.124Z,1.37
2023-02-25T23:17:05.000Z,1.33
2023-02-25T23:19:40.168Z,1.43
2023-02-25T23:22:22.287Z,1.50
2023-02-25T23:24:57.134Z,1.40
2023-02-25T23:27:32.071Z,1.40
2023-02-25T23:30:08.041Z,1.20
2023-02-25T23:32:43.007Z,1.37
2023-02-25T23:35:18.452Z,1.50
2023-02-25T23:37:53.315Z,1.10
2023-02-25T23:40:29.276Z,1.50
2023-02-25T23:43:04.389Z,1.63
2023-02-25T23:45:39.456Z,1.67
2023-02-25T23:48:14.385Z,1.40
2023-02-25T23:50:49.306Z,1.50
2023-02-25T23:53:24.246Z,1.70
2023-02-25T23:56:11.863Z,1.40
2023-02-25T23:58:53.639Z,1.57
